Time;durP1;ratioP1;P1;durP2;ratioP2;P2;SDS_P1;SDS_P2;PMS_P1;PMS_P2;Temp;Humidity;BMP_temperature;BMP_pressure;BME280_temperature;BME280_humidity;BME280_pressure;Samples;Min_cycle;Max_cycle;Signal;HPM_P1;HPM_P2
2024/04/01 00:00:12;;;;;;;10.30;2.50;;;;;;;14.47;82.35;99772.88;86838;274;137027;-74
2024/04/01 00:02:16;;;;;;;18.10;4.20;;;;;;;14.48;82.39;99769.65;87123;281;24875;-78
2024/04/01 00:04:17;;;;;;;16.30;2.80;;;;;;;14.47;82.40;99774.69;86917;269;137748;-80
2024/04/01 00:06:17;;;;;;;13.40;3.30;;;;;;;14.46;82.63;99770.20;87124;278;23851;-80
2024/04/01 00:08:20;;;;;;;12.60;2.50;;;;;;;14.46;82.74;99767.70;87013;276;136734;-80
2024/04/01 00:10:21;;;;;;;12.10;3.30;;;;;;;14.43;83.08;99759.73;87077;273;22580;-78
2024/04/01 00:12:22;;;;;;;15.00;3.60;;;;;;;14.40;83.42;99753.05;87004;273;136512;-76
2024/04/01 00:14:23;;;;;;;16.10;3.70;;;;;;;14.35;83.74;99759.10;87044;272;22513;-82
2024/04/01 00:16:24;;;;;;;12.90;3.10;;;;;;;14.30;84.14;99751.55;87150;276;136196;-78
2024/04/01 00:18:25;;;;;;;10.70;3.50;;;;;;;14.26;84.40;99746.14;87114;281;25197;-80
2024/04/01 00:20:26;;;;;;;13.50;3.30;;;;;;;14.25;84.78;99755.16;87015;272;136478;-78
2024/04/01 00:22:26;;;;;;;10.90;2.60;;;;;;;14.23;84.78;99758.96;87167;281;22781;-83
2024/04/01 00:24:27;;;;;;;17.60;3.60;;;;;;;14.18;85.32;99748.98;86882;278;137745;-78
2024/04/01 00:26:28;;;;;;;18.30;3.60;;;;;;;14.15;85.83;99753.23;87074;273;22559;-80
2024/04/01 00:28:28;;;;;;;13.90;3.80;;;;;;;14.12;86.13;99742.98;87081;269;136755;-80
2024/04/01 00:30:31;;;;;;;15.20;3.40;;;;;;;14.12;86.26;99748.75;87199;273;22704;-81
2024/04/01 00:32:33;;;;;;;11.10;4.00;;;;;;;14.10;86.42;99745.31;87146;269;138492;-83
2024/04/01 00:34:34;;;;;;;14.50;3.50;;;;;;;14.09;86.59;99746.38;87155;273;24001;-78
2024/04/01 00:36:35;;;;;;;8.30;2.70;;;;;;;14.08;86.85;99740.19;87085;273;136919;-76
2024/04/01 00:38:35;;;;;;;15.60;4.00;;;;;;;14.04;87.27;99739.09;87236;281;24004;-77
2024/04/01 00:40:36;;;;;;;13.60;4.00;;;;;;;14.01;87.42;99742.42;87103;273;138019;-80
2024/04/01 00:42:37;;;;;;;10.20;3.90;;;;;;;14.01;87.51;99739.50;87218;269;25136;-77
2024/04/01 00:44:37;;;;;;;19.80;3.20;;;;;;;13.96;87.93;99727.64;87078;281;137944;-77
2024/04/01 00:46:38;;;;;;;18.90;3.10;;;;;;;13.96;88.10;99729.17;86979;273;26198;-81
2024/04/01 00:48:39;;;;;;;12.30;3.10;;;;;;;13.94;88.11;99726.41;87050;281;136284;-75
2024/04/01 00:50:44;;;;;;;13.30;3.50;;;;;;;13.92;88.53;99731.52;86974;273;22571;-73
2024/04/01 00:52:45;;;;;;;12.20;3.60;;;;;;;13.88;89.15;99734.48;87156;270;137078;-75
2024/04/01 00:54:46;;;;;;;19.20;3.70;;;;;;;13.84;89.31;99736.45;87366;270;24045;-77
2024/04/01 00:56:48;;;;;;;14.00;4.30;;;;;;;13.81;89.57;99729.85;87211;277;136832;-77
2024/04/01 00:58:52;;;;;;;10.30;3.90;;;;;;;13.78;90.06;99733.56;87378;270;25219;-74
2024/04/01 01:00:52;;;;;;;11.80;4.10;;;;;;;13.76;90.17;99727.93;87241;274;138064;-77
2024/04/01 01:02:53;;;;;;;14.50;3.80;;;;;;;13.76;90.18;99726.17;87383;270;22573;-77
2024/04/01 01:04:54;;;;;;;11.00;2.60;;;;;;;13.75;90.41;99722.71;87220;269;137130;-75
2024/04/01 01:06:55;;;;;;;11.80;4.20;;;;;;;13.70;90.71;99720.05;87359;269;22562;-77
2024/04/01 01:08:57;;;;;;;14.80;3.40;;;;;;;13.67;91.21;99716.01;87304;265;136506;-75
2024/04/01 01:10:58;;;;;;;14.20;3.40;;;;;;;13.67;91.25;99710.89;87398;274;24718;-76
2024/04/01 01:12:59;;;;;;;14.30;3.70;;;;;;;13.62;91.56;99703.91;87234;270;137063;-75
2024/04/01 01:15:00;;;;;;;10.90;2.30;;;;;;;13.63;91.30;99695.86;87312;274;22560;-79
2024/04/01 01:17:01;;;;;;;13.20;2.90;;;;;;;13.62;91.53;99689.40;87203;274;136830;-79
2024/04/01 01:19:03;;;;;;;17.10;3.40;;;;;;;13.60;91.91;99688.73;87167;266;22560;-78
2024/04/01 01:21:04;;;;;;;14.00;3.40;;;;;;;13.56;92.23;99691.52;87396;274;137445;-80
2024/04/01 01:23:06;;;;;;;12.40;4.10;;;;;;;13.53;92.58;99684.57;87317;270;21538;-81
2024/04/01 01:25:07;;;;;;;16.90;4.10;;;;;;;13.50;92.60;99688.30;87166;273;137127;-77
2024/04/01 01:27:09;;;;;;;18.40;5.20;;;;;;;13.46;92.99;99683.61;87440;270;22720;-79
2024/04/01 01:29:09;;;;;;;19.30;4.60;;;;;;;13.46;93.19;99679.88;87089;270;137061;-75
2024/04/01 01:31:12;;;;;;;10.60;2.90;;;;;;;13.44;92.86;99678.66;87309;278;25176;-79
2024/04/01 01:33:13;;;;;;;16.90;3.40;;;;;;;13.43;93.14;99681.52;87149;270;136571;-78
2024/04/01 01:35:15;;;;;;;10.80;4.20;;;;;;;13.39;93.75;99684.55;87421;274;22556;-83
2024/04/01 01:37:16;;;;;;;12.80;3.20;;;;;;;13.35;94.07;99680.69;87299;279;136709;-85
2024/04/01 01:39:17;;;;;;;16.00;3.60;;;;;;;13.32;94.34;99675.28;87392;277;22557;-79
2024/04/01 01:41:17;;;;;;;18.20;5.30;;;;;;;13.27;94.68;99675.97;87217;270;137767;-78
2024/04/01 01:43:18;;;;;;;13.00;3.40;;;;;;;13.27;94.35;99673.58;87383;273;25242;-81
2024/04/01 01:45:19;;;;;;;16.40;5.20;;;;;;;13.28;94.49;99682.96;87094;264;137187;-80
2024/04/01 01:47:19;;;;;;;10.10;2.90;;;;;;;13.26;94.91;99680.34;87226;272;23780;-79
2024/04/01 01:49:20;;;;;;;12.90;3.60;;;;;;;13.22;95.17;99676.80;87260;266;137075;-77
2024/04/01 01:51:21;;;;;;;16.60;3.50;;;;;;;13.16;95.71;99681.97;87422;269;22660;-79
2024/04/01 01:53:22;;;;;;;18.70;4.30;;;;;;;13.16;95.70;99687.24;87235;278;136599;-82
2024/04/01 01:55:23;;;;;;;17.70;4.00;;;;;;;13.14;95.91;99693.14;87333;278;22549;-78
2024/04/01 01:57:32;;;;;;;12.00;3.10;;;;;;;13.12;96.19;99695.75;87269;270;138523;-78
2024/04/01 01:59:32;;;;;;;13.80;3.80;;;;;;;13.06;96.86;99703.02;87519;273;24046;-82
2024/04/01 02:01:33;;;;;;;17.10;4.70;;;;;;;13.01;97.16;99700.63;86689;268;835344;-83
2024/04/01 02:03:34;;;;;;;19.20;5.00;;;;;;;12.98;97.34;99700.02;87403;271;25289;-83
2024/04/01 02:05:34;;;;;;;12.30;3.10;;;;;;;12.95;97.72;99690.94;87433;265;136484;-81
2024/04/01 02:07:35;;;;;;;17.60;3.80;;;;;;;12.89;98.12;99687.02;87459;277;23996;-86
2024/04/01 02:09:36;;;;;;;13.30;3.50;;;;;;;12.91;97.89;99703.23;87365;277;137942;-79
2024/04/01 02:11:37;;;;;;;18.30;4.50;;;;;;;12.88;98.39;99693.88;87426;274;22566;-85
2024/04/01 02:13:41;;;;;;;9.60;3.20;;;;;;;12.82;98.95;99687.67;87282;273;137656;-80
2024/04/01 02:15:42;;;;;;;21.10;4.20;;;;;;;12.79;99.39;99685.05;87514;274;22539;-81
2024/04/01 02:17:42;;;;;;;17.70;4.10;;;;;;;12.78;99.65;99678.48;87157;273;137066;-75
2024/04/01 02:19:46;;;;;;;13.40;3.80;;;;;;;12.74;99.97;99678.41;87414;270;22667;-78
2024/04/01 02:21:47;;;;;;;15.00;3.80;;;;;;;12.75;99.87;99676.41;87390;270;136919;-84
2024/04/01 02:23:48;;;;;;;15.10;4.70;;;;;;;12.77;99.51;99681.00;87364;271;22558;-80
2024/04/01 02:25:48;;;;;;;15.50;4.40;;;;;;;12.75;99.94;99681.05;87383;270;137629;-82
2024/04/01 02:27:49;;;;;;;15.60;2.90;;;;;;;12.72;100.00;99694.78;87589;270;22595;-87
2024/04/01 02:29:50;;;;;;;20.20;4.00;;;;;;;12.72;99.99;99705.52;87414;270;137638;-83
2024/04/01 02:31:50;;;;;;;13.50;4.40;;;;;;;12.73;99.78;99704.53;87472;266;25121;-80
2024/04/01 02:33:51;;;;;;;14.00;3.70;;;;;;;12.75;99.94;99691.59;87494;274;136880;-81
2024/04/01 02:35:52;;;;;;;22.00;3.60;;;;;;;12.73;100.00;99690.67;87755;274;22795;-82
2024/04/01 02:37:53;;;;;;;16.40;4.10;;;;;;;12.71;100.00;99698.62;87290;261;137740;-83
2024/04/01 02:39:53;;;;;;;20.90;5.00;;;;;;;12.66;100.00;99692.81;87397;277;26672;-79
2024/04/01 02:41:54;;;;;;;16.50;4.90;;;;;;;12.65;100.00;99697.02;87259;278;137550;-78
2024/04/01 02:43:55;;;;;;;14.80;3.10;;;;;;;12.66;100.00;99694.63;87355;270;25415;-73
2024/04/01 02:45:55;;;;;;;17.50;4.20;;;;;;;12.63;100.00;99684.89;87221;265;137510;-79
2024/04/01 02:47:56;;;;;;;14.80;3.90;;;;;;;12.63;100.00;99690.20;87346;278;22669;-77
2024/04/01 02:49:57;;;;;;;12.60;3.90;;;;;;;12.63;100.00;99691.16;87326;266;136855;-77
2024/04/01 02:51:57;;;;;;;21.20;4.20;;;;;;;12.61;100.00;99679.33;87349;270;25175;-80
2024/04/01 02:53:58;;;;;;;14.60;4.00;;;;;;;12.59;100.00;99677.41;87367;265;137548;-79
2024/04/01 02:55:59;;;;;;;12.30;4.00;;;;;;;12.59;100.00;99680.03;87392;278;23019;-79
2024/04/01 02:58:00;;;;;;;14.40;4.30;;;;;;;12.57;100.00;99675.94;87501;265;136467;-80
2024/04/01 03:00:00;;;;;;;16.30;4.10;;;;;;;12.55;100.00;99678.67;87369;266;26246;-81
2024/04/01 03:02:01;;;;;;;10.50;3.60;;;;;;;12.52;100.00;99672.77;87336;270;136739;-78
2024/04/01 03:04:03;;;;;;;21.00;4.50;;;;;;;12.50;100.00;99678.17;87410;274;22664;-80
2024/04/01 03:06:06;;;;;;;18.10;3.90;;;;;;;12.49;100.00;99669.46;87372;269;25122;-80
2024/04/01 03:08:08;;;;;;;18.60;5.20;;;;;;;12.46;100.00;99667.10;87446;266;137107;-78
2024/04/01 03:10:11;;;;;;;14.10;4.30;;;;;;;12.43;100.00;99675.22;87536;266;23997;-77
2024/04/01 03:12:12;;;;;;;15.60;4.70;;;;;;;12.43;100.00;99678.14;87137;270;137073;-80
2024/04/01 03:14:12;;;;;;;12.00;3.40;;;;;;;12.40;100.00;99681.49;87305;279;24010;-77
2024/04/01 03:16:15;;;;;;;17.70;4.70;;;;;;;12.39;100.00;99681.17;87262;274;137727;-78
2024/04/01 03:18:15;;;;;;;15.20;3.70;;;;;;;12.34;100.00;99685.43;87428;270;25261;-82
2024/04/01 03:20:18;;;;;;;13.50;4.50;;;;;;;12.36;100.00;99683.54;87404;270;137363;-79
2024/04/01 03:22:19;;;;;;;14.60;4.90;;;;;;;12.35;100.00;99680.83;87413;262;26259;-79
2024/04/01 03:24:19;;;;;;;19.00;3.80;;;;;;;12.32;100.00;99681.02;87290;266;137615;-76
2024/04/01 03:26:20;;;;;;;22.10;4.60;;;;;;;12.25;100.00;99685.70;87371;274;22554;-79
2024/04/01 03:28:21;;;;;;;20.20;4.70;;;;;;;12.25;100.00;99690.38;87298;267;138402;-81
2024/04/01 03:30:21;;;;;;;9.70;3.50;;;;;;;12.27;100.00;99690.50;87372;273;25232;-80
2024/04/01 03:32:22;;;;;;;14.60;4.30;;;;;;;12.27;100.00;99690.62;87293;269;138588;-77
2024/04/01 03:34:23;;;;;;;16.30;4.00;;;;;;;12.26;100.00;99681.29;87380;277;22684;-80
2024/04/01 03:36:24;;;;;;;20.90;4.00;;;;;;;12.25;100.00;99683.11;87232;274;137364;-80
2024/04/01 03:38:24;;;;;;;14.80;4.20;;;;;;;12.21;100.00;99681.70;87304;274;23739;-77
2024/04/01 03:40:25;;;;;;;14.90;4.10;;;;;;;12.16;100.00;99680.41;87281;274;136802;-80
2024/04/01 03:42:26;;;;;;;15.00;4.40;;;;;;;12.18;100.00;99679.34;87424;270;23766;-78
2024/04/01 03:44:26;;;;;;;12.20;4.00;;;;;;;12.18;100.00;99678.02;87291;277;138057;-80
2024/04/01 03:46:27;;;;;;;15.00;4.20;;;;;;;12.15;100.00;99678.33;87256;267;25269;-78
2024/04/01 03:48:29;;;;;;;19.20;4.90;;;;;;;12.14;100.00;99677.34;87186;271;137137;-77
2024/04/01 03:50:30;;;;;;;20.70;4.10;;;;;;;12.12;100.00;99682.66;87402;270;24158;-78
2024/04/01 03:52:34;;;;;;;24.30;6.00;;;;;;;12.10;100.00;99683.45;87223;277;138815;-80
2024/04/01 03:54:35;;;;;;;18.60;4.60;;;;;;;12.08;100.00;99685.30;87398;266;22677;-77
2024/04/01 03:56:35;;;;;;;22.40;4.90;;;;;;;12.08;100.00;99680.50;87316;270;136612;-80
2024/04/01 03:58:36;;;;;;;10.90;3.30;;;;;;;12.07;100.00;99685.36;87343;274;25299;-79
2024/04/01 04:00:37;;;;;;;12.80;3.60;;;;;;;12.07;100.00;99688.72;87309;273;137062;-80
2024/04/01 04:02:37;;;;;;;21.10;5.20;;;;;;;12.09;100.00;99688.35;87375;267;22585;-81
2024/04/01 04:04:38;;;;;;;15.10;4.60;;;;;;;12.11;100.00;99689.15;87302;274;139225;-76
2024/04/01 04:06:40;;;;;;;16.90;4.10;;;;;;;12.16;100.00;99687.45;87414;274;25557;-79
2024/04/01 04:08:47;;;;;;;20.20;5.60;;;;;;;12.17;100.00;99688.84;87275;277;136995;-81
2024/04/01 04:10:48;;;;;;;20.20;5.50;;;;;;;12.18;100.00;99685.70;87385;266;25724;-77
2024/04/01 04:12:48;;;;;;;15.90;5.10;;;;;;;12.17;100.00;99683.16;87055;276;137355;-79
2024/04/01 04:14:49;;;;;;;15.10;4.40;;;;;;;12.16;100.00;99683.95;87352;262;26191;-78
2024/04/01 04:16:51;;;;;;;26.90;6.60;;;;;;;12.17;100.00;99686.58;87228;265;137139;-79
2024/04/01 04:18:52;;;;;;;13.10;4.70;;;;;;;12.18;100.00;99691.71;87388;274;23895;-79
2024/04/01 04:20:56;;;;;;;21.40;5.20;;;;;;;12.20;100.00;99690.90;87234;275;137199;-78
2024/04/01 04:22:57;;;;;;;18.70;5.40;;;;;;;12.24;100.00;99692.16;87374;266;25217;-76
2024/04/01 04:24:57;;;;;;;16.30;5.00;;;;;;;12.28;100.00;99694.65;87214;270;136839;-73
2024/04/01 04:26:58;;;;;;;14.50;3.80;;;;;;;12.33;100.00;99694.70;87256;275;22554;-78
2024/04/01 04:28:59;;;;;;;16.50;5.60;;;;;;;12.36;100.00;99690.11;87242;270;137237;-78
2024/04/01 04:30:59;;;;;;;15.60;4.30;;;;;;;12.39;100.00;99690.39;87236;275;23508;-82
2024/04/01 04:33:00;;;;;;;17.80;5.10;;;;;;;12.45;100.00;99689.44;87249;274;137599;-75
2024/04/01 04:35:01;;;;;;;14.60;4.40;;;;;;;12.51;100.00;99688.16;87207;262;23738;-76
2024/04/01 04:37:01;;;;;;;16.10;5.00;;;;;;;12.55;100.00;99692.40;87171;277;137216;-72
2024/04/01 04:39:19;;;;;;;22.50;5.50;;;;;;;12.61;100.00;99696.94;87288;270;22598;-72
2024/04/01 04:41:22;;;;;;;19.70;5.30;;;;;;;12.66;100.00;99689.11;87084;271;138127;-74
2024/04/01 04:43:22;;;;;;;20.60;5.80;;;;;;;12.71;100.00;99687.73;87166;270;22764;-74
2024/04/01 04:45:23;;;;;;;20.10;6.20;;;;;;;12.72;100.00;99689.03;87020;274;136838;-76
2024/04/01 04:47:24;;;;;;;19.30;5.40;;;;;;;12.80;100.00;99685.67;87205;274;24010;-72
2024/04/01 04:49:25;;;;;;;15.90;5.60;;;;;;;12.90;99.97;99692.45;87078;267;138252;-74
2024/04/01 04:51:25;;;;;;;28.70;5.10;;;;;;;13.01;99.54;99697.34;87204;269;25134;-74
2024/04/01 04:53:26;;;;;;;12.50;4.70;;;;;;;13.04;98.81;99698.80;87093;270;137104;-73
2024/04/01 04:55:27;;;;;;;18.20;4.50;;;;;;;13.05;98.51;99697.46;87299;277;22565;-73
2024/04/01 04:57:27;;;;;;;13.60;4.00;;;;;;;13.12;98.59;99694.52;87203;273;136715;-73
2024/04/01 04:59:28;;;;;;;15.10;4.10;;;;;;;13.24;97.79;99698.06;87233;271;24011;-72
2024/04/01 05:01:29;;;;;;;16.20;4.70;;;;;;;13.37;96.07;99694.46;87117;267;136744;-73
2024/04/01 05:03:30;;;;;;;21.20;5.10;;;;;;;13.45;95.94;99693.48;87130;270;22573;-75
2024/04/01 05:05:31;;;;;;;11.70;3.70;;;;;;;13.54;94.82;99689.66;87176;271;136973;-78
2024/04/01 05:07:32;;;;;;;19.30;5.50;;;;;;;13.56;94.23;99685.89;87330;270;24250;-73
2024/04/01 05:09:33;;;;;;;18.00;4.10;;;;;;;13.63;93.95;99684.92;87256;277;136612;-79
2024/04/01 05:11:34;;;;;;;14.90;4.80;;;;;;;13.64;93.21;99677.14;87263;270;22813;-76
2024/04/01 05:13:35;;;;;;;16.80;4.70;;;;;;;13.66;93.51;99676.11;87408;270;136709;-74
2024/04/01 05:15:36;;;;;;;17.10;4.40;;;;;;;13.66;93.28;99671.44;87695;270;22842;-76
2024/04/01 05:17:38;;;;;;;13.10;4.40;;;;;;;13.76;93.09;99673.72;87820;266;136678;-74
2024/04/01 05:19:39;;;;;;;17.00;5.20;;;;;;;13.85;92.23;99673.80;88209;266;24001;-79
2024/04/01 05:21:39;;;;;;;18.70;5.10;;;;;;;13.85;91.50;99676.86;87881;270;137042;-74
2024/04/01 05:23:41;;;;;;;22.90;4.80;;;;;;;13.78;91.98;99673.56;87954;271;22546;-74
2024/04/01 05:25:42;;;;;;;22.20;4.80;;;;;;;13.80;92.09;99677.12;87394;270;137434;-79
2024/04/01 05:27:43;;;;;;;23.90;6.30;;;;;;;13.94;91.65;99676.69;87204;274;26309;-80
2024/04/01 05:29:44;;;;;;;19.70;5.10;;;;;;;14.09;90.12;99678.25;87196;274;136881;-74
2024/04/01 05:31:44;;;;;;;17.90;5.20;;;;;;;14.20;89.93;99674.73;87303;269;22698;-75
2024/04/01 05:33:45;;;;;;;19.60;5.30;;;;;;;14.35;89.35;99680.85;87202;276;136410;-75
2024/04/01 05:35:46;;;;;;;18.50;4.60;;;;;;;14.49;87.87;99682.97;87305;269;22560;-78
2024/04/01 05:37:46;;;;;;;15.10;4.60;;;;;;;14.59;87.49;99684.48;87227;270;136271;-75
2024/04/01 05:39:47;;;;;;;21.70;6.10;;;;;;;14.68;86.39;99679.92;87313;278;25220;-77
2024/04/01 05:41:48;;;;;;;19.80;5.80;;;;;;;14.68;86.13;99683.67;87127;271;135675;-79
2024/04/01 05:43:48;;;;;;;14.40;6.10;;;;;;;14.71;86.21;99684.98;87337;273;24143;-74
2024/04/01 05:45:49;;;;;;;12.90;4.10;;;;;;;14.76;85.99;99681.19;87203;278;135937;-74
2024/04/01 05:47:51;;;;;;;14.20;4.50;;;;;;;14.85;85.40;99678.58;87246;270;22544;-79
2024/04/01 05:49:52;;;;;;;19.70;5.00;;;;;;;14.91;85.48;99680.23;87178;279;136160;-73
2024/04/01 05:51:53;;;;;;;19.90;5.40;;;;;;;14.99;84.61;99672.29;87302;277;22555;-76
2024/04/01 05:53:53;;;;;;;21.70;5.40;;;;;;;15.08;83.67;99666.90;87256;273;135454;-78
2024/04/01 05:55:54;;;;;;;18.20;5.90;;;;;;;15.04;83.81;99664.45;87335;262;22676;-76
2024/04/01 05:57:54;;;;;;;18.90;6.30;;;;;;;15.05;84.14;99667.65;87245;269;137787;-75
2024/04/01 05:59:56;;;;;;;26.00;6.30;;;;;;;15.12;84.01;99664.89;87360;262;25139;-78
2024/04/01 06:04:23;;;;;;;24.90;6.30;;;;;;;15.07;84.57;99661.52;85130;299;603808;-74
2024/04/01 06:06:24;;;;;;;15.10;6.20;;;;;;;15.18;83.90;99658.48;86347;288;22586;-80
2024/04/01 06:08:25;;;;;;;18.40;5.80;;;;;;;15.32;83.53;99656.25;85974;292;135270;-75
2024/04/01 06:10:29;;;;;;;24.10;5.10;;;;;;;15.48;82.23;99662.59;86165;289;22583;-83
2024/04/01 06:12:29;;;;;;;21.00;5.70;;;;;;;15.45;81.94;99664.21;86538;286;136458;-76
2024/04/01 06:14:30;;;;;;;26.00;5.70;;;;;;;15.40;82.05;99672.27;87044;278;22585;-80
2024/04/01 06:16:31;;;;;;;13.90;4.80;;;;;;;15.36;82.64;99679.55;87115;270;136006;-79
2024/04/01 06:18:31;;;;;;;21.60;5.50;;;;;;;15.39;82.04;99668.91;86523;272;860125;-81
2024/04/01 06:20:32;;;;;;;14.80;5.50;;;;;;;15.44;82.33;99671.59;87096;268;135884;-79
2024/04/01 06:22:33;;;;;;;16.00;4.50;;;;;;;15.50;82.83;99672.38;87339;271;22680;-85
2024/04/01 06:24:33;;;;;;;17.30;4.70;;;;;;;15.57;81.83;99667.91;87204;271;135842;-82
2024/04/01 06:26:36;;;;;;;19.80;4.50;;;;;;;15.52;81.53;99666.52;87361;272;22549;-79
2024/04/01 06:28:37;;;;;;;23.70;6.90;;;;;;;15.34;82.31;99659.64;87223;268;135960;-82
2024/04/01 06:30:38;;;;;;;19.10;6.70;;;;;;;15.17;83.19;99668.55;87269;271;25233;-77
2024/04/01 06:32:39;;;;;;;18.30;6.00;;;;;;;15.05;84.08;99674.84;87166;276;136004;-80
2024/04/01 06:34:40;;;;;;;16.40;5.20;;;;;;;15.06;84.67;99678.58;87292;268;22567;-80
2024/04/01 06:36:41;;;;;;;17.60;5.40;;;;;;;15.13;85.11;99679.58;87177;267;135913;-79
2024/04/01 06:38:42;;;;;;;18.00;6.00;;;;;;;15.20;84.43;99672.06;87231;271;23016;-77
2024/04/01 06:40:43;;;;;;;21.90;6.40;;;;;;;15.25;84.53;99677.48;87089;272;136987;-75
2024/04/01 06:42:45;;;;;;;15.70;6.10;;;;;;;15.39;84.31;99678.91;87129;280;22577;-72
2024/04/01 06:44:48;;;;;;;23.30;5.90;;;;;;;15.62;82.70;99681.81;87031;275;136753;-76
2024/04/01 06:46:50;;;;;;;15.30;5.50;;;;;;;15.82;82.33;99690.13;87284;271;23732;-76
2024/04/01 06:48:51;;;;;;;15.30;5.30;;;;;;;15.98;81.18;99690.66;87154;270;136834;-75
2024/04/01 06:50:52;;;;;;;12.60;5.60;;;;;;;16.06;80.67;99687.09;87353;278;22616;-74
2024/04/01 06:52:53;;;;;;;17.00;5.10;;;;;;;16.09;80.34;99688.17;87299;274;138774;-74
2024/04/01 06:54:53;;;;;;;21.90;6.10;;;;;;;16.04;79.78;99681.84;87348;279;22567;-78
2024/04/01 06:56:54;;;;;;;15.10;6.20;;;;;;;15.94;80.40;99681.92;87240;271;135954;-83
2024/04/01 06:58:55;;;;;;;23.10;7.40;;;;;;;15.86;81.01;99682.27;87688;271;22519;-84
2024/04/01 07:00:55;;;;;;;25.20;5.80;;;;;;;15.86;81.28;99690.91;87231;275;136835;-77
2024/04/01 07:02:56;;;;;;;23.80;6.50;;;;;;;15.88;80.88;99692.45;87107;272;25107;-76
2024/04/01 07:04:57;;;;;;;22.20;6.50;;;;;;;15.88;81.07;99696.33;87117;267;135805;-80
2024/04/01 07:06:58;;;;;;;13.70;5.30;;;;;;;15.89;81.49;99700.59;87314;275;22570;-75
2024/04/01 07:08:59;;;;;;;21.00;6.30;;;;;;;15.94;81.35;99703.36;87176;276;136211;-75
2024/04/01 07:11:00;;;;;;;23.10;6.60;;;;;;;16.09;80.86;99702.10;87352;268;25204;-85
2024/04/01 07:13:01;;;;;;;16.00;5.50;;;;;;;16.18;80.59;99703.77;87256;272;135791;-71
2024/04/01 07:15:01;;;;;;;14.00;5.40;;;;;;;16.22;80.69;99702.98;87193;269;25075;-77
2024/04/01 07:17:02;;;;;;;20.10;5.40;;;;;;;16.29;79.90;99704.13;87063;269;136140;-81
2024/04/01 07:19:03;;;;;;;19.30;5.90;;;;;;;16.32;79.69;99704.77;87153;273;22707;-75
2024/04/01 07:21:04;;;;;;;22.30;6.30;;;;;;;16.34;79.58;99710.46;87025;276;136057;-72
2024/04/01 07:23:05;;;;;;;19.60;6.70;;;;;;;16.41;79.56;99706.87;87144;277;22563;-87
2024/04/01 07:25:06;;;;;;;26.60;6.00;;;;;;;16.47;78.73;99708.85;87063;268;135812;-82
2024/04/01 07:27:07;;;;;;;20.00;6.70;;;;;;;16.47;79.24;99700.95;87333;271;24010;-76
2024/04/01 07:29:08;;;;;;;22.80;6.70;;;;;;;16.50;79.14;99705.73;87127;271;135321;-75
2024/04/01 07:31:08;;;;;;;23.60;5.80;;;;;;;16.53;79.05;99702.08;87412;267;22548;-76
2024/04/01 07:33:09;;;;;;;21.60;6.40;;;;;;;16.57;78.81;99700.96;87216;268;135880;-77
2024/04/01 07:35:11;;;;;;;25.40;6.20;;;;;;;16.58;78.96;99696.22;87192;275;22722;-80
2024/04/01 07:37:13;;;;;;;27.20;6.50;;;;;;;16.58;78.77;99694.20;87241;268;137456;-79
2024/04/01 07:39:14;;;;;;;21.90;6.30;;;;;;;16.64;79.12;99687.63;87253;272;23347;-77
2024/04/01 07:41:15;;;;;;;19.60;5.50;;;;;;;16.77;78.67;99690.52;87133;271;135564;-75
2024/04/01 07:43:15;;;;;;;21.00;6.20;;;;;;;16.87;77.85;99689.42;87270;279;22563;-76
2024/04/01 07:45:16;;;;;;;22.80;6.70;;;;;;;16.89;78.08;99685.41;87076;272;135780;-76
2024/04/01 07:47:18;;;;;;;22.20;6.80;;;;;;;16.92;78.06;99682.01;87167;269;22539;-74
2024/04/01 07:49:19;;;;;;;20.70;6.20;;;;;;;17.02;77.44;99688.13;87204;275;136143;-77
2024/04/01 07:51:20;;;;;;;26.50;8.00;;;;;;;17.06;76.49;99684.17;87272;271;25005;-76
2024/04/01 07:53:20;;;;;;;18.60;7.40;;;;;;;17.06;76.91;99683.63;86933;276;137443;-78
2024/04/01 07:55:21;;;;;;;19.70;6.70;;;;;;;17.10;77.53;99679.91;87059;280;24148;-80
2024/04/01 07:57:28;;;;;;;21.50;5.90;;;;;;;17.22;76.59;99683.25;87219;273;135353;-76
2024/04/01 07:59:30;;;;;;;26.70;7.00;;;;;;;17.28;75.66;99688.73;87273;268;22518;-78
2024/04/01 08:01:31;;;;;;;21.00;6.30;;;;;;;17.29;76.00;99692.19;87348;271;135627;-77
2024/04/01 08:03:31;;;;;;;21.50;5.70;;;;;;;17.29;75.90;99696.60;87174;272;24004;-78
2024/04/01 08:05:32;;;;;;;20.30;5.80;;;;;;;17.33;76.20;99690.40;87076;273;135982;-75
2024/04/01 08:07:33;;;;;;;20.40;7.10;;;;;;;17.39;76.03;99689.09;87236;270;23231;-78
2024/04/01 08:09:34;;;;;;;23.60;5.50;;;;;;;17.48;75.62;99693.95;87017;276;136170;-77
2024/04/01 08:11:34;;;;;;;23.20;6.70;;;;;;;17.58;74.99;99691.70;87156;280;22775;-75
2024/04/01 08:13:35;;;;;;;24.10;5.70;;;;;;;17.64;74.96;99693.50;86989;269;135846;-76
2024/04/01 08:15:36;;;;;;;22.60;5.90;;;;;;;17.68;74.45;99691.71;87191;273;22610;-78
2024/04/01 08:17:36;;;;;;;26.40;6.30;;;;;;;17.70;74.08;99691.52;87188;272;135668;-77
2024/04/01 08:19:37;;;;;;;21.30;7.30;;;;;;;17.68;74.35;99689.94;87110;270;22566;-75
2024/04/01 08:21:38;;;;;;;22.30;6.90;;;;;;;17.70;74.45;99689.20;87064;277;135737;-80
2024/04/01 08:23:38;;;;;;;20.40;6.80;;;;;;;17.78;74.34;99685.64;87301;280;25090;-77
2024/04/01 08:25:39;;;;;;;15.30;5.80;;;;;;;17.92;73.99;99685.14;87176;273;135554;-77
2024/04/01 08:27:40;;;;;;;23.60;5.80;;;;;;;18.03;73.34;99680.98;87107;271;24221;-78
2024/04/01 08:29:41;;;;;;;27.70;7.30;;;;;;;18.12;73.20;99684.58;87209;273;136999;-80
2024/04/01 08:31:41;;;;;;;22.10;6.80;;;;;;;18.20;73.29;99688.88;87287;281;26243;-77
2024/04/01 08:33:42;;;;;;;32.80;6.40;;;;;;;18.31;72.20;99691.94;87052;273;137923;-77
2024/04/01 08:35:43;;;;;;;21.20;6.40;;;;;;;18.37;71.65;99692.59;87375;272;25234;-78
2024/04/01 08:37:44;;;;;;;20.10;5.50;;;;;;;18.39;71.67;99694.83;87144;269;135577;-75
2024/04/01 08:39:45;;;;;;;18.80;6.50;;;;;;;18.43;71.42;99697.89;87204;276;23742;-81
2024/04/01 08:41:52;;;;;;;19.90;5.80;;;;;;;18.46;71.30;99695.48;87256;273;136960;-78
2024/04/01 08:44:13;;;;;;;25.60;6.40;;;;;;;18.48;71.14;99697.29;87504;271;25050;-79
2024/04/01 08:46:14;;;;;;;24.50;5.70;;;;;;;18.55;71.63;99695.02;87294;271;23778;-78
2024/04/01 08:48:21;;;;;;;20.80;6.20;;;;;;;18.64;71.30;99692.89;87279;271;136067;-79
2024/04/01 08:50:23;;;;;;;23.80;6.90;;;;;;;18.73;70.93;99693.13;87461;271;23929;-76
2024/04/01 08:52:25;;;;;;;27.20;6.90;;;;;;;18.83;70.77;99695.61;87263;279;136040;-78
2024/04/01 08:54:26;;;;;;;20.80;5.90;;;;;;;18.93;70.51;99690.66;87329;276;23937;-76
2024/04/01 08:56:29;;;;;;;23.80;6.00;;;;;;;19.04;70.03;99693.05;87259;272;136185;-81
2024/04/01 08:58:31;;;;;;;17.80;6.00;;;;;;;19.14;68.90;99682.73;87427;272;25516;-76
2024/04/01 09:00:31;;;;;;;22.50;6.60;;;;;;;19.17;69.12;99679.19;87239;280;136223;-76
2024/04/01 09:02:32;;;;;;;26.60;6.10;;;;;;;19.17;68.41;99677.95;87412;273;22846;-77
2024/04/01 09:04:33;;;;;;;27.30;6.20;;;;;;;19.22;68.39;99678.10;87390;272;137283;-76
2024/04/01 09:06:35;;;;;;;24.70;6.60;;;;;;;19.25;68.18;99674.77;87417;271;24108;-76
2024/04/01 09:08:35;;;;;;;25.60;5.80;;;;;;;19.29;67.82;99672.61;87313;266;135984;-78
2024/04/01 09:10:36;;;;;;;32.90;6.80;;;;;;;19.34;68.06;99670.38;87567;274;22571;-81
2024/04/01 09:12:42;;;;;;;17.40;5.90;;;;;;;19.39;67.96;99659.81;87301;280;135477;-79
2024/04/01 09:14:43;;;;;;;21.60;7.20;;;;;;;19.51;68.06;99658.35;87463;278;22575;-78
2024/04/01 09:16:44;;;;;;;28.10;7.20;;;;;;;19.64;67.26;99656.88;87319;279;135952;-76
2024/04/01 09:18:45;;;;;;;23.70;6.20;;;;;;;19.74;66.27;99651.85;87492;272;24056;-79
2024/04/01 09:20:46;;;;;;;21.30;6.50;;;;;;;19.80;65.81;99650.80;87425;267;135917;-79
2024/04/01 09:22:47;;;;;;;27.10;6.00;;;;;;;19.84;65.94;99644.96;87392;267;25208;-76
2024/04/01 09:24:49;;;;;;;21.60;6.80;;;;;;;19.88;65.87;99645.69;87295;271;137378;-78
2024/04/01 09:26:49;;;;;;;18.30;5.70;;;;;;;19.96;65.69;99645.55;87406;276;22548;-77